sensor_id;sensor_type;location;lat;lon;timestamp;pressure;altitude;pressure_sealevel;temperature;humidity
56558;BME280;43358;50.356;12.456;2023-02-14T00:01:06;97461;;;-1.8;98.8
56558;BME280;43358;50.356;12.456;2023-02-14T00:02:05;97459;;;-1.7;98.8
56558;BME280;43358;50.356;12.456;2023-02-14T00:03:07;97459;;;-1.6;98.8
56558;BME280;43358;50.356;12.456;2023-02-14T00:04:09;97462;;;-1.5;98.8
56558;BME280;43358;50.356;12.456;2023-02-14T00:05:11;97462;;;-1.4;98.8
56558;BME280;43358;50.356;12.456;2023-02-14T00:06:14;97461;;;-1.3;98.8
56558;BME280;43358;50.356;12.456;2023-02-14T00:07:16;97461;;;-1.3;98.8
56558;BME280;43358;50.356;12.456;2023-02-14T00:08:18;97459;;;-1.3;98.8
56558;BME280;43358;50.356;12.456;2023-02-14T00:09:20;97459;;;-1.4;98.8
56558;BME280;43358;50.356;12.456;2023-02-14T00:10:22;97458;;;-1.4;98.8
56558;BME280;43358;50.356;12.456;2023-02-14T00:12:27;97453;;;-1.5;98.8
56558;BME280;43358;50.356;12.456;2023-02-14T00:14:31;97456;;;-1.7;98.8
56558;BME280;43358;50.356;12.456;2023-02-14T00:15:34;97455;;;-1.7;98.8
56558;BME280;43358;50.356;12.456;2023-02-14T00:17:38;97459;;;-1.8;98.8
56558;BME280;43358;50.356;12.456;2023-02-14T00:18:40;97458;;;-1.8;98.8
56558;BME280;43358;50.356;12.456;2023-02-14T00:19:43;97461;;;-1.9;98.8
56558;BME280;43358;50.356;12.456;2023-02-14T00:20:45;97461;;;-1.9;98.8
56558;BME280;43358;50.356;12.456;2023-02-14T00:21:47;97461;;;-2;98.8
56558;BME280;43358;50.356;12.456;2023-02-14T00:22:49;97461;;;-2;98.8
56558;BME280;43358;50.356;12.456;2023-02-14T00:23:51;97465;;;-2;98.8
56558;BME280;43358;50.356;12.456;2023-02-14T00:24:54;97462;;;-2;98.8
56558;BME280;43358;50.356;12.456;2023-02-14T00:25:58;97459;;;-2.1;98.8
56558;BME280;43358;50.356;12.456;2023-02-14T00:27:00;97460;;;-2.1;98.8
56558;BME280;43358;50.356;12.456;2023-02-14T00:28:02;97459;;;-2.1;98.8
56558;BME280;43358;50.356;12.456;2023-02-14T00:29:05;97460;;;-2.1;98.8
56558;BME280;43358;50.356;12.456;2023-02-14T00:30:07;97456;;;-2.1;98.8
56558;BME280;43358;50.356;12.456;2023-02-14T00:31:09;97453;;;-2.1;98.8
56558;BME280;43358;50.356;12.456;2023-02-14T00:32:11;97453;;;-2.1;98.8
56558;BME280;43358;50.356;12.456;2023-02-14T00:33:13;97454;;;-2.1;98.8
56558;BME280;43358;50.356;12.456;2023-02-14T00:34:16;97454;;;-2.1;98.8
56558;BME280;43358;50.356;12.456;2023-02-14T00:35:18;97455;;;-2.1;98.8
56558;BME280;43358;50.356;12.456;2023-02-14T00:36:21;97455;;;-2.1;98.8
56558;BME280;43358;50.356;12.456;2023-02-14T00:37:22;97447;;;-2.1;98.8
56558;BME280;43358;50.356;12.456;2023-02-14T00:38:24;97444;;;-2.2;98.8
56558;BME280;43358;50.356;12.456;2023-02-14T00:39:26;97446;;;-2.2;98.8
56558;BME280;43358;50.356;12.456;2023-02-14T00:40:28;97444;;;-2.1;98.8
56558;BME280;43358;50.356;12.456;2023-02-14T00:41:30;97447;;;-2.2;98.8
56558;BME280;43358;50.356;12.456;2023-02-14T00:42:32;97449;;;-2.2;98.8
56558;BME280;43358;50.356;12.456;2023-02-14T00:43:34;97451;;;-2.1;98.8
56558;BME280;43358;50.356;12.456;2023-02-14T00:44:36;97452;;;-2.2;98.8
56558;BME280;43358;50.356;12.456;2023-02-14T00:45:38;97451;;;-2.2;98.8
56558;BME280;43358;50.356;12.456;2023-02-14T00:46:40;97450;;;-2.2;98.8
56558;BME280;43358;50.356;12.456;2023-02-14T00:47:42;97448;;;-2.2;98.8
56558;BME280;43358;50.356;12.456;2023-02-14T00:49:46;97454;;;-2.2;98.8
56558;BME280;43358;50.356;12.456;2023-02-14T00:50:48;97454;;;-2.2;98.8
56558;BME280;43358;50.356;12.456;2023-02-14T00:52:04;97453;;;-2.3;98.8
56558;BME280;43358;50.356;12.456;2023-02-14T00:52:52;97453;;;-2.3;98.8
56558;BME280;43358;50.356;12.456;2023-02-14T00:53:58;97453;;;-2.3;98.8
56558;BME280;43358;50.356;12.456;2023-02-14T00:55:00;97449;;;-2.3;98.8
56558;BME280;43358;50.356;12.456;2023-02-14T00:56:04;97448;;;-2.4;98.8
56558;BME280;43358;50.356;12.456;2023-02-14T00:57:05;97448;;;-2.4;98.8
56558;BME280;43358;50.356;12.456;2023-02-14T00:58:07;97449;;;-2.4;98.8
56558;BME280;43358;50.356;12.456;2023-02-14T00:59:10;97452;;;-2.4;98.8
56558;BME280;43358;50.356;12.456;2023-02-14T01:00:12;97452;;;-2.4;98.8
56558;BME280;43358;50.356;12.456;2023-02-14T01:01:14;97449;;;-2.4;98.8
56558;BME280;43358;50.356;12.456;2023-02-14T01:02:56;97448;;;-2.4;98.8
56558;BME280;43358;50.356;12.456;2023-02-14T01:03:57;97448;;;-2.4;98.8
56558;BME280;43358;50.356;12.456;2023-02-14T01:04:56;97447;;;-2.4;98.8
56558;BME280;43358;50.356;12.456;2023-02-14T01:05:56;97447;;;-2.4;98.8
56558;BME280;43358;50.356;12.456;2023-02-14T01:06:56;97448;;;-2.3;98.8
56558;BME280;43358;50.356;12.456;2023-02-14T01:07:56;97450;;;-2.3;98.8
56558;BME280;43358;50.356;12.456;2023-02-14T01:08:56;97454;;;-2.3;98.8
56558;BME280;43358;50.356;12.456;2023-02-14T01:09:56;97452;;;-2.3;98.8
56558;BME280;43358;50.356;12.456;2023-02-14T01:10:57;97450;;;-2.3;98.8
56558;BME280;43358;50.356;12.456;2023-02-14T01:11:56;97449;;;-2.3;98.8
56558;BME280;43358;50.356;12.456;2023-02-14T01:12:56;97440;;;-2.3;98.8
56558;BME280;43358;50.356;12.456;2023-02-14T01:13:57;97437;;;-2.2;98.8
56558;BME280;43358;50.356;12.456;2023-02-14T01:14:57;97433;;;-2.2;98.8
56558;BME280;43358;50.356;12.456;2023-02-14T01:15:56;97431;;;-2.1;98.8
56558;BME280;43358;50.356;12.456;2023-02-14T01:16:56;97428;;;-2;98.8
56558;BME280;43358;50.356;12.456;2023-02-14T01:17:57;97427;;;-1.9;98.8
56558;BME280;43358;50.356;12.456;2023-02-14T01:20:06;97430;;;-1.9;98.8
56558;BME280;43358;50.356;12.456;2023-02-14T01:21:10;97432;;;-1.9;98.8
56558;BME280;43358;50.356;12.456;2023-02-14T01:22:11;97434;;;-1.9;98.8
56558;BME280;43358;50.356;12.456;2023-02-14T01:25:39;97430;;;-2;98.8
56558;BME280;43358;50.356;12.456;2023-02-14T01:26:25;97427;;;-2;98.8
56558;BME280;43358;50.356;12.456;2023-02-14T01:28:13;97425;;;-2;98.8
56558;BME280;43358;50.356;12.456;2023-02-14T01:29:46;97420;;;-2;98.8
56558;BME280;43358;50.356;12.456;2023-02-14T01:31:51;97416;;;-1.9;98.8
56558;BME280;43358;50.356;12.456;2023-02-14T01:32:58;97416;;;-1.7;98.1
56558;BME280;43358;50.356;12.456;2023-02-14T01:34:10;97414;;;-1.7;98
56558;BME280;43358;50.356;12.456;2023-02-14T01:35:16;97416;;;-1.8;98.2
56558;BME280;43358;50.356;12.456;2023-02-14T01:36:05;97414;;;-1.9;98.4
56558;BME280;43358;50.356;12.456;2023-02-14T01:37:06;97415;;;-1.9;98.8
56558;BME280;43358;50.356;12.456;2023-02-14T01:40:28;97415;;;-2;98.8
56558;BME280;43358;50.356;12.456;2023-02-14T01:41:18;97417;;;-2.1;98.8
56558;BME280;43358;50.356;12.456;2023-02-14T01:42:19;97414;;;-2.1;98.8
56558;BME280;43358;50.356;12.456;2023-02-14T01:43:21;97415;;;-2.1;98.8
56558;BME280;43358;50.356;12.456;2023-02-14T01:45:26;97412;;;-2.1;98.8
56558;BME280;43358;50.356;12.456;2023-02-14T01:47:30;97410;;;-2.1;98.8
56558;BME280;43358;50.356;12.456;2023-02-14T01:48:31;97409;;;-2.1;98.8
56558;BME280;43358;50.356;12.456;2023-02-14T01:49:34;97409;;;-2.1;98.8
56558;BME280;43358;50.356;12.456;2023-02-14T01:50:37;97410;;;-2.1;98.8
56558;BME280;43358;50.356;12.456;2023-02-14T01:51:39;97410;;;-2.1;98.8
56558;BME280;43358;50.356;12.456;2023-02-14T01:52:40;97414;;;-2;98.8
56558;BME280;43358;50.356;12.456;2023-02-14T01:53:41;97415;;;-2;98.8
56558;BME280;43358;50.356;12.456;2023-02-14T01:54:44;97416;;;-2;98.8
56558;BME280;43358;50.356;12.456;2023-02-14T01:55:46;97420;;;-2;98.8
56558;BME280;43358;50.356;12.456;2023-02-14T01:56:48;97421;;;-2;98.8
56558;BME280;43358;50.356;12.456;2023-02-14T01:57:50;97419;;;-2;98.8
56558;BME280;43358;50.356;12.456;2023-02-14T01:58:52;97420;;;-2;98.8
56558;BME280;43358;50.356;12.456;2023-02-14T01:59:55;97423;;;-2;98.8
56558;BME280;43358;50.356;12.456;2023-02-14T02:00:55;97424;;;-2;98.8
56558;BME280;43358;50.356;12.456;2023-02-14T02:01:57;97425;;;-1.9;98.8
56558;BME280;43358;50.356;12.456;2023-02-14T02:02:59;97423;;;-1.9;98.8
56558;BME280;43358;50.356;12.456;2023-02-14T02:04:02;97423;;;-1.9;98.8
56558;BME280;43358;50.356;12.456;2023-02-14T02:05:03;97423;;;-1.9;98.8
56558;BME280;43358;50.356;12.456;2023-02-14T02:06:08;97422;;;-1.9;98.8
56558;BME280;43358;50.356;12.456;2023-02-14T02:07:08;97424;;;-1.9;98.8
56558;BME280;43358;50.356;12.456;2023-02-14T02:08:09;97422;;;-1.9;98.8
56558;BME280;43358;50.356;12.456;2023-02-14T02:09:12;97421;;;-1.9;98.8
56558;BME280;43358;50.356;12.456;2023-02-14T02:10:13;97420;;;-1.9;98.8
56558;BME280;43358;50.356;12.456;2023-02-14T02:11:17;97419;;;-1.8;98.8
56558;BME280;43358;50.356;12.456;2023-02-14T02:12:19;97414;;;-1.7;98.8
56558;BME280;43358;50.356;12.456;2023-02-14T02:13:21;97412;;;-1.6;98.8
56558;BME280;43358;50.356;12.456;2023-02-14T02:14:23;97409;;;-1.5;98.8
56558;BME280;43358;50.356;12.456;2023-02-14T02:16:45;97405;;;-1.5;98.8
56558;BME280;43358;50.356;12.456;2023-02-14T02:19:43;97404;;;-1.5;98.8
56558;BME280;43358;50.356;12.456;2023-02-14T02:24:47;97403;;;-1.6;98.8
56558;BME280;43358;50.356;12.456;2023-02-14T02:27:58;97399;;;-1.7;98.8
56558;BME280;43358;50.356;12.456;2023-02-14T02:29:01;97402;;;-1.7;98.8
56558;BME280;43358;50.356;12.456;2023-02-14T02:32:09;97403;;;-1.6;98.8
56558;BME280;43358;50.356;12.456;2023-02-14T02:34:02;97402;;;-1.6;98.8
56558;BME280;43358;50.356;12.456;2023-02-14T02:35:14;97406;;;-1.7;98.8
56558;BME280;43358;50.356;12.456;2023-02-14T02:36:00;97408;;;-1.7;98.8
56558;BME280;43358;50.356;12.456;2023-02-14T02:36:59;97411;;;-1.7;98.8
56558;BME280;43358;50.356;12.456;2023-02-14T02:39:01;97411;;;-1.7;98.8
56558;BME280;43358;50.356;12.456;2023-02-14T02:44:59;97411;;;-1.7;98.8
56558;BME280;43358;50.356;12.456;2023-02-14T02:46:59;97405;;;-1.7;98.8
56558;BME280;43358;50.356;12.456;2023-02-14T02:47:59;97407;;;-1.7;98.8
56558;BME280;43358;50.356;12.456;2023-02-14T02:48:58;97404;;;-1.7;98.8
56558;BME280;43358;50.356;12.456;2023-02-14T02:50:23;97404;;;-1.7;98.8
56558;BME280;43358;50.356;12.456;2023-02-14T02:51:11;97407;;;-1.6;98.8
56558;BME280;43358;50.356;12.456;2023-02-14T02:52:58;97402;;;-1.5;98.8
56558;BME280;43358;50.356;12.456;2023-02-14T02:53:57;97406;;;-1.4;98.8
56558;BME280;43358;50.356;12.456;2023-02-14T02:56:57;97407;;;-1.2;98.8
56558;BME280;43358;50.356;12.456;2023-02-14T02:58:57;97401;;;-1.1;98.8
56558;BME280;43358;50.356;12.456;2023-02-14T03:00:30;97400;;;-1.2;98.8
56558;BME280;43358;50.356;12.456;2023-02-14T03:01:32;97400;;;-1.2;98.8
56558;BME280;43358;50.356;12.456;2023-02-14T03:03:37;97399;;;-1.3;98.8
56558;BME280;43358;50.356;12.456;2023-02-14T03:04:41;97402;;;-1.4;98.8
56558;BME280;43358;50.356;12.456;2023-02-14T03:05:41;97402;;;-1.4;98.8
56558;BME280;43358;50.356;12.456;2023-02-14T03:06:43;97403;;;-1.5;98.8
56558;BME280;43358;50.356;12.456;2023-02-14T03:07:49;97406;;;-1.5;98.8
56558;BME280;43358;50.356;12.456;2023-02-14T03:08:51;97407;;;-1.5;98.8
56558;BME280;43358;50.356;12.456;2023-02-14T03:09:54;97403;;;-1.5;98.8
56558;BME280;43358;50.356;12.456;2023-02-14T03:10:55;97401;;;-1.5;98.8
56558;BME280;43358;50.356;12.456;2023-02-14T03:12:02;97401;;;-1.5;98.8
56558;BME280;43358;50.356;12.456;2023-02-14T03:13:09;97403;;;-1.5;98.8
56558;BME280;43358;50.356;12.456;2023-02-14T03:14:04;97402;;;-1.5;98.8
56558;BME280;43358;50.356;12.456;2023-02-14T03:15:06;97405;;;-1.4;98.8
56558;BME280;43358;50.356;12.456;2023-02-14T03:16:09;97404;;;-1.4;98.8
56558;BME280;43358;50.356;12.456;2023-02-14T03:17:08;97404;;;-1.4;98.8
56558;BME280;43358;50.356;12.456;2023-02-14T03:18:10;97408;;;-1.4;98.8
56558;BME280;43358;50.356;12.456;2023-02-14T03:19:46;97406;;;-1.5;98.8
56558;BME280;43358;50.356;12.456;2023-02-14T03:20:15;97404;;;-1.5;98.8
56558;BME280;43358;50.356;12.456;2023-02-14T03:21:23;97409;;;-1.5;98.8
56558;BME280;43358;50.356;12.456;2023-02-14T03:22:20;97405;;;-1.5;98.8
56558;BME280;43358;50.356;12.456;2023-02-14T03:23:22;97404;;;-1.5;98.8
56558;BME280;43358;50.356;12.456;2023-02-14T03:24:24;97407;;;-1.6;98.8
56558;BME280;43358;50.356;12.456;2023-02-14T03:25:29;97407;;;-1.6;98.8
56558;BME280;43358;50.356;12.456;2023-02-14T03:26:31;97405;;;-1.6;98.8
56558;BME280;43358;50.356;12.456;2023-02-14T03:27:31;97403;;;-1.6;98.8
56558;BME280;43358;50.356;12.456;2023-02-14T03:28:35;97409;;;-1.6;98.8
56558;BME280;43358;50.356;12.456;2023-02-14T03:29:40;97406;;;-1.6;98.8
56558;BME280;43358;50.356;12.456;2023-02-14T03:30:40;97410;;;-1.6;98.8
56558;BME280;43358;50.356;12.456;2023-02-14T03:31:41;97413;;;-1.6;98.8
56558;BME280;43358;50.356;12.456;2023-02-14T03:32:41;97412;;;-1.6;98.8
56558;BME280;43358;50.356;12.456;2023-02-14T03:33:44;97412;;;-1.6;98.8
56558;BME280;43358;50.356;12.456;2023-02-14T03:34:47;97411;;;-1.6;98.8
56558;BME280;43358;50.356;12.456;2023-02-14T03:35:48;97410;;;-1.6;98.8
56558;BME280;43358;50.356;12.456;2023-02-14T03:36:49;97411;;;-1.6;98.8
56558;BME280;43358;50.356;12.456;2023-02-14T03:37:51;97411;;;-1.6;98.8
56558;BME280;43358;50.356;12.456;2023-02-14T03:38:54;97408;;;-1.6;98.8
56558;BME280;43358;50.356;12.456;2023-02-14T03:39:57;97409;;;-1.6;98.8
56558;BME280;43358;50.356;12.456;2023-02-14T03:40:58;97407;;;-1.5;98.8
56558;BME280;43358;50.356;12.456;2023-02-14T03:42:00;97408;;;-1.5;98.8
56558;BME280;43358;50.356;12.456;2023-02-14T03:43:03;97408;;;-1.4;98.8
56558;BME280;43358;50.356;12.456;2023-02-14T03:44:04;97409;;;-1.3;98.8
56558;BME280;43358;50.356;12.456;2023-02-14T03:45:06;97409;;;-1.2;98.8
56558;BME280;43358;50.356;12.456;2023-02-14T03:46:08;97408;;;-1.1;98.8
56558;BME280;43358;50.356;12.456;2023-02-14T03:47:09;97409;;;-1.2;98.8
56558;BME280;43358;50.356;12.456;2023-02-14T03:48:12;97409;;;-1.2;98.8
56558;BME280;43358;50.356;12.456;2023-02-14T03:49:14;97414;;;-1.2;98.8
56558;BME280;43358;50.356;12.456;2023-02-14T03:50:17;97413;;;-1.3;98.8
56558;BME280;43358;50.356;12.456;2023-02-14T03:51:18;97415;;;-1.3;98.8
56558;BME280;43358;50.356;12.456;2023-02-14T03:52:20;97412;;;-1.3;98.8
56558;BME280;43358;50.356;12.456;2023-02-14T03:53:22;97409;;;-1.3;98.8
56558;BME280;43358;50.356;12.456;2023-02-14T03:54:24;97411;;;-1.3;98.8
56558;BME280;43358;50.356;12.456;2023-02-14T03:55:27;97413;;;-1.3;98.8
56558;BME280;43358;50.356;12.456;2023-02-14T03:56:29;97410;;;-1.3;98.8
56558;BME280;43358;50.356;12.456;2023-02-14T03:57:31;97411;;;-1.3;98.8
56558;BME280;43358;50.356;12.456;2023-02-14T03:58:33;97413;;;-1.3;98.8
56558;BME280;43358;50.356;12.456;2023-02-14T03:59:36;97409;;;-1.3;98.8
56558;BME280;43358;50.356;12.456;2023-02-14T04:00:39;97412;;;-1.3;98.8
56558;BME280;43358;50.356;12.456;2023-02-14T04:01:41;97413;;;-1.3;98.8
56558;BME280;43358;50.356;12.456;2023-02-14T04:02:42;97410;;;-1.4;98.8
56558;BME280;43358;50.356;12.456;2023-02-14T04:03:45;97408;;;-1.4;98.8
56558;BME280;43358;50.356;12.456;2023-02-14T04:04:48;97411;;;-1.4;98.8
56558;BME280;43358;50.356;12.456;2023-02-14T04:05:50;97408;;;-1.4;98.8
56558;BME280;43358;50.356;12.456;2023-02-14T04:06:52;97408;;;-1.3;98.8
56558;BME280;43358;50.356;12.456;2023-02-14T04:07:55;97408;;;-1.4;98.8
56558;BME280;43358;50.356;12.456;2023-02-14T04:08:56;97408;;;-1.4;98.8
56558;BME280;43358;50.356;12.456;2023-02-14T04:09:58;97413;;;-1.4;98.8
56558;BME280;43358;50.356;12.456;2023-02-14T04:11:00;97411;;;-1.4;98.8
56558;BME280;43358;50.356;12.456;2023-02-14T04:12:02;97412;;;-1.4;98.8
56558;BME280;43358;50.356;12.456;2023-02-14T04:14:08;97411;;;-1.4;98.8
56558;BME280;43358;50.356;12.456;2023-02-14T04:15:11;97414;;;-1.4;98.8
56558;BME280;43358;50.356;12.456;2023-02-14T04:16:12;97414;;;-1.4;98.8
56558;BME280;43358;50.356;12.456;2023-02-14T04:17:14;97412;;;-1.4;98.8
56558;BME280;43358;50.356;12.456;2023-02-14T04:18:16;97411;;;-1.4;98.8
56558;BME280;43358;50.356;12.456;2023-02-14T04:19:18;97413;;;-1.4;98.8
56558;BME280;43358;50.356;12.456;2023-02-14T04:20:20;97415;;;-1.4;98.8
56558;BME280;43358;50.356;12.456;2023-02-14T04:21:23;97415;;;-1.4;98.8
56558;BME280;43358;50.356;12.456;2023-02-14T04:22:25;97415;;;-1.4;98.8
56558;BME280;43358;50.356;12.456;2023-02-14T04:23:27;97417;;;-1.4;98.8
56558;BME280;43358;50.356;12.456;2023-02-14T04:24:30;97417;;;-1.4;98.8
56558;BME280;43358;50.356;12.456;2023-02-14T04:25:32;97420;;;-1.3;98.8
56558;BME280;43358;50.356;12.456;2023-02-14T04:26:34;97418;;;-1.3;98.8
56558;BME280;43358;50.356;12.456;2023-02-14T04:27:36;97417;;;-1.2;98.8
56558;BME280;43358;50.356;12.456;2023-02-14T04:28:38;97418;;;-1.2;98.8
56558;BME280;43358;50.356;12.456;2023-02-14T04:29:42;97418;;;-1;98.8
56558;BME280;43358;50.356;12.456;2023-02-14T04:30:42;97419;;;-0.9;98.8
56558;BME280;43358;50.356;12.456;2023-02-14T04:31:46;97419;;;-0.9;98.8
56558;BME280;43358;50.356;12.456;2023-02-14T04:32:48;97420;;;-0.9;98.8
56558;BME280;43358;50.356;12.456;2023-02-14T04:33:50;97419;;;-0.8;98.8
56558;BME280;43358;50.356;12.456;2023-02-14T04:34:52;97420;;;-0.8;98.8
56558;BME280;43358;50.356;12.456;2023-02-14T04:35:54;97415;;;-0.8;98.8
56558;BME280;43358;50.356;12.456;2023-02-14T04:36:56;97417;;;-0.8;98.8
56558;BME280;43358;50.356;12.456;2023-02-14T04:37:59;97415;;;-0.8;98.8
56558;BME280;43358;50.356;12.456;2023-02-14T04:39:00;97414;;;-0.8;98.8
56558;BME280;43358;50.356;12.456;2023-02-14T04:40:03;97414;;;-0.8;98.8
56558;BME280;43358;50.356;12.456;2023-02-14T04:41:04;97413;;;-0.8;98.8
56558;BME280;43358;50.356;12.456;2023-02-14T04:42:07;97417;;;-0.8;98.8
56558;BME280;43358;50.356;12.456;2023-02-14T04:43:09;97416;;;-0.9;98.8
56558;BME280;43358;50.356;12.456;2023-02-14T04:44:11;97418;;;-0.9;98.8
56558;BME280;43358;50.356;12.456;2023-02-14T04:45:13;97418;;;-0.9;98.8
56558;BME280;43358;50.356;12.456;2023-02-14T04:46:15;97418;;;-1;98.8
56558;BME280;43358;50.356;12.456;2023-02-14T04:47:17;97415;;;-1;98.8
56558;BME280;43358;50.356;12.456;2023-02-14T04:48:19;97412;;;-0.9;98.8
56558;BME280;43358;50.356;12.456;2023-02-14T04:49:21;97411;;;-1;98.8
56558;BME280;43358;50.356;12.456;2023-02-14T04:50:24;97411;;;-1;98.8
56558;BME280;43358;50.356;12.456;2023-02-14T04:51:26;97416;;;-1;98.8
56558;BME280;43358;50.356;12.456;2023-02-14T04:52:29;97415;;;-1;98.8
56558;BME280;43358;50.356;12.456;2023-02-14T04:53:31;97413;;;-1.1;98.8
56558;BME280;43358;50.356;12.456;2023-02-14T04:54:33;97414;;;-1.1;98.8
56558;BME280;43358;50.356;12.456;2023-02-14T04:55:35;97416;;;-1.1;98.8
56558;BME280;43358;50.356;12.456;2023-02-14T04:56:37;97412;;;-1.1;98.8
56558;BME280;43358;50.356;12.456;2023-02-14T04:57:39;97409;;;-1.1;98.8
56558;BME280;43358;50.356;12.456;2023-02-14T04:58:41;97406;;;-1;98.8
56558;BME280;43358;50.356;12.456;2023-02-14T04:59:43;97404;;;-1;98.8
56558;BME280;43358;50.356;12.456;2023-02-14T05:00:45;97408;;;-0.9;98.8
56558;BME280;43358;50.356;12.456;2023-02-14T05:01:49;97404;;;-0.9;98.8
56558;BME280;43358;50.356;12.456;2023-02-14T05:02:51;97409;;;-0.9;98.8
56558;BME280;43358;50.356;12.456;2023-02-14T05:03:53;97409;;;-0.9;98.8
56558;BME280;43358;50.356;12.456;2023-02-14T05:04:55;97411;;;-1;98.8
56558;BME280;43358;50.356;12.456;2023-02-14T05:05:57;97415;;;-1;98.8
56558;BME280;43358;50.356;12.456;2023-02-14T05:06:59;97415;;;-1;98.8
56558;BME280;43358;50.356;12.456;2023-02-14T05:08:01;97415;;;-1.1;98.8
56558;BME280;43358;50.356;12.456;2023-02-14T05:09:03;97416;;;-1.1;98.8
56558;BME280;43358;50.356;12.456;2023-02-14T05:10:06;97417;;;-1.1;98.8
56558;BME280;43358;50.356;12.456;2023-02-14T05:11:07;97415;;;-1.1;98.8
56558;BME280;43358;50.356;12.456;2023-02-14T05:12:10;97417;;;-1.1;98.8
56558;BME280;43358;50.356;12.456;2023-02-14T05:13:12;97418;;;-1.1;98.8
56558;BME280;43358;50.356;12.456;2023-02-14T05:14:14;97415;;;-1.1;98.8
56558;BME280;43358;50.356;12.456;2023-02-14T05:15:17;97413;;;-1.1;98.8
56558;BME280;43358;50.356;12.456;2023-02-14T05:17:20;97416;;;-1.1;98.8
56558;BME280;43358;50.356;12.456;2023-02-14T05:18:22;97414;;;-1.2;98.8
56558;BME280;43358;50.356;12.456;2023-02-14T05:19:25;97419;;;-1.2;98.8
56558;BME280;43358;50.356;12.456;2023-02-14T05:20:27;97423;;;-1.2;98.8
56558;BME280;43358;50.356;12.456;2023-02-14T05:21:29;97420;;;-1.2;98.8
56558;BME280;43358;50.356;12.456;2023-02-14T05:22:31;97418;;;-1.2;98.8
56558;BME280;43358;50.356;12.456;2023-02-14T05:23:33;97418;;;-1.2;98.8
56558;BME280;43358;50.356;12.456;2023-02-14T05:24:35;97417;;;-1.2;98.8
56558;BME280;43358;50.356;12.456;2023-02-14T05:25:37;97418;;;-1.1;98.8
56558;BME280;43358;50.356;12.456;2023-02-14T05:26:39;97417;;;-1.1;98.8
56558;BME280;43358;50.356;12.456;2023-02-14T05:27:41;97418;;;-1;98.8
56558;BME280;43358;50.356;12.456;2023-02-14T05:28:43;97420;;;-0.9;98.8
56558;BME280;43358;50.356;12.456;2023-02-14T05:29:45;97419;;;-0.9;98.8
56558;BME280;43358;50.356;12.456;2023-02-14T05:30:50;97420;;;-0.9;98.8
56558;BME280;43358;50.356;12.456;2023-02-14T05:31:52;97420;;;-0.8;98.8
56558;BME280;43358;50.356;12.456;2023-02-14T05:32:54;97418;;;-0.8;98.8
56558;BME280;43358;50.356;12.456;2023-02-14T05:33:56;97417;;;-0.7;98.8
56558;BME280;43358;50.356;12.456;2023-02-14T05:34:58;97417;;;-0.7;98.8
56558;BME280;43358;50.356;12.456;2023-02-14T05:36:01;97415;;;-0.7;98.8
56558;BME280;43358;50.356;12.456;2023-02-14T05:37:02;97412;;;-0.7;98.8
56558;BME280;43358;50.356;12.456;2023-02-14T05:38:04;97414;;;-0.7;98.8
56558;BME280;43358;50.356;12.456;2023-02-14T05:39:06;97416;;;-0.8;98.8
56558;BME280;43358;50.356;12.456;2023-02-14T05:40:09;97414;;;-0.8;98.8
56558;BME280;43358;50.356;12.456;2023-02-14T05:41:10;97415;;;-0.9;98.8
56558;BME280;43358;50.356;12.456;2023-02-14T05:42:12;97417;;;-0.9;98.8
56558;BME280;43358;50.356;12.456;2023-02-14T05:43:15;97417;;;-0.9;98.8
56558;BME280;43358;50.356;12.456;2023-02-14T05:44:17;97421;;;-0.9;98.8
56558;BME280;43358;50.356;12.456;2023-02-14T05:45:21;97419;;;-0.9;98.8
56558;BME280;43358;50.356;12.456;2023-02-14T05:46:22;97420;;;-0.9;98.8
56558;BME280;43358;50.356;12.456;2023-02-14T05:47:24;97419;;;-0.9;98.8
56558;BME280;43358;50.356;12.456;2023-02-14T05:48:27;97421;;;-0.9;98.8
56558;BME280;43358;50.356;12.456;2023-02-14T05:49:29;97418;;;-0.9;98.8
56558;BME280;43358;50.356;12.456;2023-02-14T05:50:31;97418;;;-0.9;98.8
56558;BME280;43358;50.356;12.456;2023-02-14T05:51:33;97419;;;-0.8;98.8
56558;BME280;43358;50.356;12.456;2023-02-14T05:52:36;97420;;;-0.8;98.8
56558;BME280;43358;50.356;12.456;2023-02-14T05:53:38;97422;;;-0.7;98.8
56558;BME280;43358;50.356;12.456;2023-02-14T05:54:40;97422;;;-0.7;98.8
56558;BME280;43358;50.356;12.456;2023-02-14T05:55:42;97421;;;-0.7;98.8
56558;BME280;43358;50.356;12.456;2023-02-14T05:56:45;97422;;;-0.8;98.8
56558;BME280;43358;50.356;12.456;2023-02-14T05:57:48;97421;;;-0.8;98.8
56558;BME280;43358;50.356;12.456;2023-02-14T05:59:04;97421;;;-0.8;98.8
56558;BME280;43358;50.356;12.456;2023-02-14T05:59:52;97424;;;-0.9;98.8
56558;BME280;43358;50.356;12.456;2023-02-14T06:00:55;97423;;;-0.9;98.8
56558;BME280;43358;50.356;12.456;2023-02-14T06:01:57;97421;;;-0.9;98.8
56558;BME280;43358;50.356;12.456;2023-02-14T06:03:00;97420;;;-0.9;98.8
56558;BME280;43358;50.356;12.456;2023-02-14T06:04:01;97424;;;-0.9;98.8
56558;BME280;43358;50.356;12.456;2023-02-14T06:05:05;97424;;;-0.8;98.8
56558;BME280;43358;50.356;12.456;2023-02-14T06:06:06;97426;;;-0.8;98.8
56558;BME280;43358;50.356;12.456;2023-02-14T06:07:09;97428;;;-0.8;98.8
56558;BME280;43358;50.356;12.456;2023-02-14T06:08:11;97426;;;-0.9;98.8
56558;BME280;43358;50.356;12.456;2023-02-14T06:09:13;97427;;;-0.9;98.8
56558;BME280;43358;50.356;12.456;2023-02-14T06:10:16;97425;;;-0.8;98.8
56558;BME280;43358;50.356;12.456;2023-02-14T06:11:17;97427;;;-0.8;98.8
56558;BME280;43358;50.356;12.456;2023-02-14T06:12:19;97427;;;-0.8;98.8
56558;BME280;43358;50.356;12.456;2023-02-14T06:13:21;97425;;;-0.9;98.8
56558;BME280;43358;50.356;12.456;2023-02-14T06:14:23;97425;;;-0.9;98.8
56558;BME280;43358;50.356;12.456;2023-02-14T06:15:25;97427;;;-0.9;98.8
56558;BME280;43358;50.356;12.456;2023-02-14T06:16:27;97424;;;-0.9;98.8
56558;BME280;43358;50.356;12.456;2023-02-14T06:17:29;97424;;;-0.9;98.8
56558;BME280;43358;50.356;12.456;2023-02-14T06:18:31;97426;;;-0.9;98.8
56558;BME280;43358;50.356;12.456;2023-02-14T06:19:33;97427;;;-0.9;98.8
56558;BME280;43358;50.356;12.456;2023-02-14T06:20:36;97428;;;-0.8;98.8
56558;BME280;43358;50.356;12.456;2023-02-14T06:21:38;97426;;;-0.7;98.8
56558;BME280;43358;50.356;12.456;2023-02-14T06:22:40;97426;;;-0.6;98.8
56558;BME280;43358;50.356;12.456;2023-02-14T06:23:57;97423;;;-0.5;98.8
56558;BME280;43358;50.356;12.456;2023-02-14T06:24:57;97424;;;-0.4;98.8
56558;BME280;43358;50.356;12.456;2023-02-14T06:25:57;97424;;;-0.4;98.8
56558;BME280;43358;50.356;12.456;2023-02-14T06:26:57;97421;;;-0.3;98.8
56558;BME280;43358;50.356;12.456;2023-02-14T06:27:57;97421;;;-0.3;98.8
56558;BME280;43358;50.356;12.456;2023-02-14T06:28:57;97422;;;-0.3;98.8
56558;BME280;43358;50.356;12.456;2023-02-14T06:29:57;97421;;;-0.3;98.8